Cove, Oregon
Current Conditions -  °F | °C
As of 4:15 PM on Friday 19 Dec 2014 (Local Time) from KLGD Reporting Station
Overcast Overcast  
Wind Chill: 41°   Ceiling: 3400
Heat Index: 41°   Visibility: 10mi
Dew Point: 30°   Wind: 3mph
Humidity: 65%   Direction: 210°SSW
Pressure: 30"   Gusts: NA
Location:  45.3°N, 117.81°W
Report Text: KLGD 200015Z AUTO 21003KT 10SM BKN034 OVC043 05/M01 A3000 RMK AO1
Loading
Personal Weather Stations






























Interactive Weather Map New forecast layout! Learn more

10-Day Weather Forecast

Advertisements
Track Severe Weather on mobile